Nave Cetus — D5DB7 — position and weather

sailwx.info

Track history (hours):
 
Tides and Currents Weather Stations Pressure Air Temp Water Temp Dewpoint Dewpoint Depression Visibility Wind Speed Wind Dir Waves Ship Positions

Nave Cetus

Last reported at 2017-Sep-05 15:24 UTC. Time now 2017-Sep-24 14:23 UTC.
Position N 25°24' W 079°33'.
Warning: this ship's position is 18 days out of date.

Length 228 m; draft 11.8 m.

Type: Tanker. MMSI: 636015834.

Date/timePositionNaut miles runAvg speedWind from/ knotsBaromVisibWave heightAir tempDewpointWater temp
2017-Sep-05 15:24N 25°24' W 079°33'512.0
2017-Sep-05 15:00N 25°28' W 079°33'611.9
2017-Sep-05 14:30N 25°34' W 079°33'611.7
2017-Sep-05 14:00N 25°40' W 079°33'611.4
2017-Sep-05 13:30N 25°46' W 079°32'611.7
2017-Sep-05 13:00N 25°51' W 079°29'611.9
2017-Sep-05 12:30N 25°57' W 079°27'712.0
2017-Sep-05 11:55N 26°03' W 079°24'512.3
2017-Sep-05 11:30N 26°08' W 079°22'  
2017-Sep-01 12:28N 25°46' W 079°31'511.7
2017-Sep-01 12:00N 25°41' W 079°33'714.0
2017-Sep-01 11:30N 25°34' W 079°33'  
Track history (hours):
 
Tides and Currents Weather Stations Pressure Air Temp Water Temp Dewpoint Dewpoint Depression Visibility Wind Speed Wind Dir Waves Ship Positions

Nave Cetus

Last reported at 2017-Sep-05 15:24 UTC. Time now 2017-Sep-24 14:23 UTC.
Position N 25°24' W 079°33'.
Warning: this ship's position is 18 days out of date.

Length 228 m; draft 11.8 m.

Type: Tanker. MMSI: 636015834.

Date/timePositionNaut miles runAvg speedWind from/ knotsBaromVisibWave heightAir tempDewpointWater temp
2017-Sep-05 15:24N 25°24' W 079°33'512.0
2017-Sep-05 15:00N 25°28' W 079°33'611.9
2017-Sep-05 14:30N 25°34' W 079°33'611.7
2017-Sep-05 14:00N 25°40' W 079°33'611.4
2017-Sep-05 13:30N 25°46' W 079°32'611.7
2017-Sep-05 13:00N 25°51' W 079°29'611.9
2017-Sep-05 12:30N 25°57' W 079°27'712.0
2017-Sep-05 11:55N 26°03' W 079°24'512.3
2017-Sep-05 11:30N 26°08' W 079°22'  
2017-Sep-01 12:28N 25°46' W 079°31'511.7
2017-Sep-01 12:00N 25°41' W 079°33'714.0
2017-Sep-01 11:30N 25°34' W 079°33'  

Dump ship's entire track history